Rhinelander, WI

7:16 AM CST on December 19, 2014 (GMT -0600)
Rhinelander CW5781 | Change Station
CLOSE
Current Station
Personal Weather Station
Location: Rhinelander, WI
Elevation: 1520 ft
Nearby Weather Stations

Elev 1520 ft 45.64 °N, 89.39 °W | Updated 3 seconds ago

Overcast
Overcast
3.2 °F
Feels Like 3 °F
N
0.0
Wind Variable Wind from NE
Gusts 0.0 mph

Today
High -- | Low -- °F
--% Chance of Precip.
Yesterday
High -- | Low -- °F
Precip. -- in
7:34 AM 4:15 PM
Waning Crescent, 8% visible
Pressure 30.23 in
Visibility 4.0 miles
Clouds Overcast 200 ft
Windchill 3 °F
Dew Point 1 °F
Humidity 91%
Rainfall 0.00 in
Snow Depth Not available.
UV 0 out of 12
Pollen .10 out of 12
Air Quality Not available.
Flu Activity Not available.
SPECI KRHI 191306Z AUTO 00000KT 4SM BR OVC002 M16/M17 A3023 RMK AO2 T11561172

More Conditions Fewer Conditions

Pressure 30.23 in
Visibility 4.0 miles
Clouds Overcast 200 ft
Windchill 3 °F
Dew Point 1 °F
Humidity 91%
Rainfall 0.00 in
Snow Depth Not available.
UV 0 out of 12
Pollen .10 out of 12
Air Quality Not available.
Flu Activity Not available.
SPECI KRHI 191306Z AUTO 00000KT 4SM BR OVC002 M16/M17 A3023 RMK AO2 T11561172

More Conditions Fewer Conditions

10-Day Weather Forecast

Almanac

Astronomy

Dec. 19, 2014 Rise Set
Actual Time
Civil Twilight
Nautical Twilight
Astronomical Twilight
Moon
Length of Visible Light
Length of Day
Tomorrow will be .
, % of the Moon is Illuminated

Today's Extremes

State Highs State Lows

Community

WunderPhotos

Upload Photos

1,778,985 photos uploaded!

WunderBlogs® & News

Nearby

Air Quality

  Air Quality AQ Index Pollutant
Not available.

Snow Depth

Station Depth Elevation

Earthquake Activity

City Distance Mag. Time & Date
Minimum magnitude displayed is 2.5.

Coastal Water Temperatures

Place Temperature

Nearby Weather Stations